Time;durP1;ratioP1;P1;durP2;ratioP2;P2;SDS_P1;SDS_P2;PMS_P1;PMS_P2;Temp;Humidity;BMP_temperature;BMP_pressure;BME280_temperature;BME280_humidity;BME280_pressure;Samples;Min_cycle;Max_cycle;Signal;HPM_P1;HPM_P2
2021/11/16 00:00:12;;;;;;;82.35;43.55;;;;;;;5.95;100.00;101442.59;5095436;28;20411;-74
2021/11/16 00:02:42;;;;;;;82.65;45.15;;;;;;;5.82;100.00;101441.09;5095086;28;20047;-74
2021/11/16 00:05:11;;;;;;;79.70;42.42;;;;;;;5.84;100.00;101444.56;5095146;28;20044;-75
2021/11/16 00:07:40;;;;;;;79.57;42.50;;;;;;;5.94;100.00;101438.19;5095240;28;20044;-71
2021/11/16 00:10:09;;;;;;;80.25;43.13;;;;;;;5.78;100.00;101439.41;5094949;28;20530;-72
2021/11/16 00:12:38;;;;;;;80.20;43.08;;;;;;;5.70;100.00;101444.88;5095427;28;20401;-72
2021/11/16 00:15:08;;;;;;;80.95;43.67;;;;;;;5.59;100.00;101438.91;5095500;28;20120;-72
2021/11/16 00:17:37;;;;;;;78.15;42.42;;;;;;;5.44;100.00;101445.41;5095890;28;20485;-72
2021/11/16 00:20:12;;;;;;;77.88;41.42;;;;;;;5.62;100.00;101436.22;5095056;28;20044;-72
2021/11/16 00:22:41;;;;;;;85.90;43.08;;;;;;;5.61;100.00;101435.34;5095146;28;20055;-72
2021/11/16 00:25:20;;;;;;;75.70;42.10;;;;;;;5.50;100.00;101440.00;5094889;28;20048;-71
2021/11/16 00:27:48;;;;;;;79.85;44.03;;;;;;;5.30;100.00;101436.84;5095016;28;20062;-71
2021/11/16 00:30:18;;;;;;;85.53;45.15;;;;;;;5.26;100.00;101428.13;5094257;28;20565;-74
2021/11/16 00:32:47;;;;;;;85.68;43.60;;;;;;;5.23;100.00;101436.13;5094731;28;20097;-75
2021/11/16 00:35:16;;;;;;;79.03;43.55;;;;;;;5.35;100.00;101435.88;5094360;28;20050;-74
2021/11/16 00:37:45;;;;;;;84.18;42.67;;;;;;;5.28;100.00;101436.88;5094656;28;20043;-74
2021/11/16 00:40:19;;;;;;;79.45;42.40;;;;;;;5.13;100.00;101440.72;5094205;28;20043;-75
2021/11/16 00:42:49;;;;;;;78.72;40.95;;;;;;;5.21;100.00;101437.03;5094661;28;20119;-74
2021/11/16 00:45:18;;;;;;;73.47;38.83;;;;;;;5.53;100.00;101439.06;5094061;28;20509;-74
2021/11/16 00:47:47;;;;;;;72.55;37.97;;;;;;;5.42;100.00;101434.84;5094672;28;20072;-74
2021/11/16 00:50:16;;;;;;;74.72;40.90;;;;;;;5.31;100.00;101438.63;5094182;28;20040;-74
2021/11/16 00:52:47;;;;;;;72.25;39.22;;;;;;;5.14;100.00;101442.47;5094107;28;20132;-73
2021/11/16 00:55:17;;;;;;;74.00;39.90;;;;;;;5.01;100.00;101442.69;5093701;28;20079;-73
2021/11/16 00:57:45;;;;;;;71.43;38.95;;;;;;;5.02;100.00;101441.78;5094455;28;20161;-73
2021/11/16 01:00:17;;;;;;;67.65;36.83;;;;;;;5.09;100.00;101439.00;5094026;28;20059;-77
2021/11/16 01:02:46;;;;;;;72.35;39.03;;;;;;;5.01;100.00;101446.22;5093831;28;20044;-73
2021/11/16 01:05:16;;;;;;;69.25;36.97;;;;;;;4.95;100.00;101435.78;5093508;28;20093;-74
2021/11/16 01:07:44;;;;;;;67.15;37.10;;;;;;;4.98;100.00;101448.91;5094127;28;20062;-73
2021/11/16 01:10:16;;;;;;;69.47;36.95;;;;;;;4.87;100.00;101443.84;5094078;28;20067;-73
2021/11/16 01:12:45;;;;;;;64.22;36.35;;;;;;;4.85;100.00;101447.41;5094104;28;20139;-73
2021/11/16 01:15:15;;;;;;;65.40;36.55;;;;;;;4.96;100.00;101447.22;5094006;28;20105;-73
2021/11/16 01:17:47;;;;;;;68.30;37.33;;;;;;;4.82;100.00;101447.44;5093777;28;20563;-73
2021/11/16 01:20:19;;;;;;;68.80;38.85;;;;;;;4.72;100.00;101448.50;5093351;28;20478;-74
2021/11/16 01:22:50;;;;;;;68.68;37.60;;;;;;;4.56;100.00;101448.78;5094069;28;20075;-73
2021/11/16 01:25:18;;;;;;;73.68;39.10;;;;;;;4.53;100.00;101445.28;5093613;28;20409;-73
2021/11/16 01:27:46;;;;;;;72.63;39.10;;;;;;;4.51;100.00;101450.59;5093748;28;20048;-73
2021/11/16 01:30:18;;;;;;;70.68;38.15;;;;;;;4.49;100.00;101457.69;5093364;28;20047;-76
2021/11/16 01:32:49;;;;;;;69.93;39.65;;;;;;;4.48;100.00;101455.94;5093518;28;20055;-73
2021/11/16 01:35:20;;;;;;;66.63;36.67;;;;;;;4.46;100.00;101454.25;5093413;28;20370;-74
2021/11/16 01:37:49;;;;;;;73.18;39.10;;;;;;;4.41;100.00;101459.56;5093705;28;20051;-73
2021/11/16 01:40:19;;;;;;;71.40;38.38;;;;;;;4.35;100.00;101459.69;5093325;28;20050;-73
2021/11/16 01:42:51;;;;;;;74.28;39.25;;;;;;;4.35;100.00;101462.34;5093757;28;20397;-72
2021/11/16 01:45:20;;;;;;;71.85;39.10;;;;;;;4.33;100.00;101466.75;5092917;28;20035;-73
2021/11/16 01:47:49;;;;;;;68.38;37.08;;;;;;;4.35;100.00;101470.25;5093512;28;20051;-73
2021/11/16 01:50:22;;;;;;;73.68;39.95;;;;;;;4.42;100.00;101466.59;5093186;28;20503;-73
2021/11/16 01:52:51;;;;;;;74.13;38.13;;;;;;;4.47;100.00;101469.19;5092825;28;20067;-73
2021/11/16 01:55:24;;;;;;;72.65;39.10;;;;;;;4.66;100.00;101461.84;5093165;28;20292;-73
2021/11/16 01:57:54;;;;;;;74.15;38.72;;;;;;;4.74;100.00;101452.88;5093418;28;20435;-73
2021/11/16 02:00:26;;;;;;;65.03;36.30;;;;;;;4.89;100.00;101455.25;5093031;28;20048;-72
2021/11/16 02:02:56;;;;;;;67.30;36.58;;;;;;;4.95;100.00;101454.28;5093323;28;20063;-72
2021/11/16 02:05:38;;;;;;;67.63;35.90;;;;;;;5.15;100.00;101445.97;5092892;28;20078;-74
2021/11/16 02:08:07;;;;;;;66.90;37.10;;;;;;;5.25;100.00;101444.91;5093320;28;20044;-73
2021/11/16 02:10:36;;;;;;;66.38;36.15;;;;;;;5.30;100.00;101440.38;5093109;28;20051;-74
2021/11/16 02:13:05;;;;;;;65.78;34.53;;;;;;;5.45;100.00;101441.84;5093102;28;20048;-73
2021/11/16 02:15:37;;;;;;;65.55;35.55;;;;;;;5.49;100.00;101440.88;5092545;28;20386;-73
2021/11/16 02:18:07;;;;;;;67.03;36.22;;;;;;;5.62;100.00;101433.56;5092860;28;20123;-73
2021/11/16 02:20:38;;;;;;;66.57;37.40;;;;;;;5.51;100.00;101447.03;5092815;28;20071;-73
2021/11/16 02:23:07;;;;;;;64.55;36.97;;;;;;;5.66;100.00;101436.09;5093189;28;20472;-73
2021/11/16 02:25:36;;;;;;;68.75;36.78;;;;;;;5.72;100.00;101436.00;5092940;28;20040;-73
2021/11/16 02:28:06;;;;;;;64.18;36.30;;;;;;;5.71;100.00;101434.25;5093163;28;20089;-73
2021/11/16 02:30:35;;;;;;;66.45;35.95;;;;;;;5.71;100.00;101434.25;5092863;28;20069;-73
2021/11/16 02:33:03;;;;;;;68.75;34.60;;;;;;;5.56;100.00;101433.69;5093287;28;20044;-73
2021/11/16 02:35:32;;;;;;;65.47;36.80;;;;;;;5.72;100.00;101429.81;5091086;28;20048;-74
2021/11/16 02:38:01;;;;;;;63.63;35.08;;;;;;;5.68;100.00;101431.66;5092647;28;20040;-75
2021/11/16 02:40:30;;;;;;;63.03;35.72;;;;;;;5.56;100.00;101437.22;5092760;28;20134;-75
2021/11/16 02:42:58;;;;;;;69.85;37.55;;;;;;;5.42;100.00;101434.84;5092990;28;20409;-75
2021/11/16 02:45:27;;;;;;;57.72;34.20;;;;;;;5.35;100.00;101425.28;5092255;28;20040;-75
2021/11/16 02:47:55;;;;;;;68.65;37.17;;;;;;;5.51;100.00;101436.44;5092894;28;20044;-75
2021/11/16 02:50:24;;;;;;;60.25;34.58;;;;;;;5.53;100.00;101423.19;5092234;28;20093;-75
2021/11/16 02:52:52;;;;;;;66.43;35.92;;;;;;;5.62;100.00;101433.56;5092468;28;20040;-75
2021/11/16 02:55:22;;;;;;;60.42;35.13;;;;;;;5.43;100.00;101433.09;5092900;28;20089;-81
2021/11/16 02:57:50;;;;;;;60.92;33.63;;;;;;;5.69;100.00;101421.94;5092931;28;20071;-74
2021/11/16 03:00:18;;;;;;;62.70;33.85;;;;;;;5.76;100.00;101431.50;5092834;28;20090;-76
2021/11/16 03:02:49;;;;;;;64.55;36.10;;;;;;;5.53;100.00;101429.34;5092734;28;20036;-77
2021/11/16 03:05:17;;;;;;;62.72;35.65;;;;;;;5.57;100.00;101425.72;5095152;28;20481;-76
2021/11/16 03:07:47;;;;;;;58.83;34.20;;;;;;;5.63;100.00;101433.53;5095839;28;20101;-76
2021/11/16 03:10:17;;;;;;;59.60;35.75;;;;;;;5.57;100.00;101435.44;5096488;28;20047;-76
2021/11/16 03:12:47;;;;;;;61.33;34.90;;;;;;;5.66;100.00;101433.47;5096179;28;20055;-76
2021/11/16 03:15:16;;;;;;;64.50;36.20;;;;;;;5.78;100.00;101428.81;5096243;28;20044;-72
2021/11/16 03:17:44;;;;;;;62.40;33.97;;;;;;;5.78;100.00;101429.69;5096057;28;20443;-72
2021/11/16 03:20:15;;;;;;;59.17;34.97;;;;;;;5.52;100.00;101432.03;5096252;28;20074;-72
2021/11/16 03:22:46;;;;;;;63.25;34.05;;;;;;;5.48;100.00;101433.84;5095979;28;20044;-72
2021/11/16 03:25:15;;;;;;;63.42;32.90;;;;;;;5.53;100.00;101429.34;5096334;28;20431;-72
2021/11/16 03:27:45;;;;;;;69.05;36.42;;;;;;;5.49;100.00;101430.28;5095801;28;20392;-74
2021/11/16 03:30:15;;;;;;;61.28;33.90;;;;;;;5.55;100.00;101431.94;5095984;28;20040;-74
2021/11/16 03:32:44;;;;;;;68.15;35.95;;;;;;;5.41;100.00;101434.91;5095740;28;20051;-74
2021/11/16 03:35:13;;;;;;;59.38;35.42;;;;;;;5.41;100.00;101432.25;5095602;28;20040;-74
2021/11/16 03:37:47;;;;;;;60.00;34.92;;;;;;;5.35;100.00;101432.34;5095546;28;20151;-74
2021/11/16 03:40:17;;;;;;;64.10;34.85;;;;;;;5.62;100.00;101429.16;5095961;28;20117;-74
2021/11/16 03:42:48;;;;;;;64.32;34.10;;;;;;;5.60;100.00;101428.31;5095398;28;20043;-74
2021/11/16 03:45:20;;;;;;;62.95;34.80;;;;;;;5.59;100.00;101426.53;5095900;28;20396;-73
2021/11/16 03:47:49;;;;;;;61.50;34.08;;;;;;;5.52;100.00;101424.09;5095263;28;20048;-74
2021/11/16 03:50:21;;;;;;;57.97;32.95;;;;;;;5.51;100.00;101425.00;5095631;28;20040;-76
2021/11/16 03:52:53;;;;;;;62.00;35.08;;;;;;;5.52;100.00;101414.38;5095435;28;20039;-76
2021/11/16 03:55:24;;;;;;;58.58;32.50;;;;;;;5.55;100.00;101421.38;5095648;28;20056;-76
2021/11/16 03:57:55;;;;;;;61.40;34.45;;;;;;;5.45;100.00;101415.41;5095839;28;20125;-76
2021/11/16 04:00:29;;;;;;;58.60;32.67;;;;;;;5.37;100.00;101415.53;5095467;28;20058;-76
2021/11/16 04:02:58;;;;;;;61.42;33.30;;;;;;;5.30;100.00;101415.69;5095435;28;20059;-71
2021/11/16 04:05:27;;;;;;;61.35;33.50;;;;;;;5.37;100.00;101404.97;5094704;28;20044;-73
2021/11/16 04:07:56;;;;;;;61.17;32.85;;;;;;;5.38;100.00;101416.41;5095042;28;20524;-72
2021/11/16 04:10:25;;;;;;;65.53;34.13;;;;;;;5.38;100.00;101406.69;5094959;28;20044;-71
2021/11/16 04:12:53;;;;;;;62.53;32.75;;;;;;;5.37;100.00;101407.59;5094943;28;20109;-71
2021/11/16 04:15:25;;;;;;;57.83;31.73;;;;;;;5.29;100.00;101404.25;5094477;28;20051;-71
2021/11/16 04:17:56;;;;;;;62.55;34.72;;;;;;;5.15;100.00;101412.47;5094800;28;20085;-71
2021/11/16 04:20:31;;;;;;;63.45;33.15;;;;;;;5.12;100.00;101412.53;5094943;28;20105;-76
2021/11/16 04:23:00;;;;;;;66.53;33.40;;;;;;;5.06;100.00;101403.84;5095041;28;20067;-71
2021/11/16 04:25:29;;;;;;;60.30;32.20;;;;;;;5.07;100.00;101409.09;5094555;28;20130;-72
2021/11/16 04:27:58;;;;;;;60.88;33.08;;;;;;;4.93;100.00;101415.56;5095753;28;20044;-71
2021/11/16 04:30:28;;;;;;;64.15;33.78;;;;;;;4.90;100.00;101405.88;5095621;28;20040;-72
2021/11/16 04:32:57;;;;;;;60.72;32.33;;;;;;;4.75;100.00;101406.19;5095181;28;20440;-73
2021/11/16 04:35:25;;;;;;;59.55;33.88;;;;;;;4.81;100.00;101408.69;5094707;28;20040;-72
2021/11/16 04:37:56;;;;;;;62.97;32.95;;;;;;;4.63;100.00;101407.25;5094365;28;20040;-72
2021/11/16 04:40:31;;;;;;;59.15;33.35;;;;;;;4.49;100.00;101412.78;5094824;28;20138;-72
2021/11/16 04:43:02;;;;;;;63.40;34.38;;;;;;;4.42;100.00;101403.19;5094709;28;20040;-72
2021/11/16 04:45:33;;;;;;;59.60;31.65;;;;;;;4.77;100.00;101407.00;5094473;28;20044;-73
2021/11/16 04:48:04;;;;;;;62.17;33.53;;;;;;;4.55;100.00;101407.41;5094554;28;20048;-72
2021/11/16 04:50:43;;;;;;;60.42;32.85;;;;;;;4.55;100.00;101407.41;5092942;28;20474;-72
2021/11/16 04:53:47;;;;;;;58.72;31.38;;;;;;;4.67;100.00;101411.59;5092836;28;20397;-72
2021/11/16 05:04:35;;;;;;;55.60;30.48;;;;;;;4.51;100.00;101400.41;5093788;28;20067;-75
2021/11/16 05:07:04;;;;;;;64.22;34.42;;;;;;;4.52;100.00;101410.06;5094098;28;20048;-75
2021/11/16 05:09:33;;;;;;;65.45;34.70;;;;;;;4.52;100.00;101415.34;5093505;28;20052;-76
2021/11/16 05:12:01;;;;;;;67.47;34.45;;;;;;;4.49;100.00;101415.41;5094149;28;20040;-74
2021/11/16 05:14:29;;;;;;;69.28;35.63;;;;;;;4.57;100.00;101412.66;5093773;28;20502;-75
2021/11/16 05:16:59;;;;;;;64.28;35.75;;;;;;;4.47;100.00;101414.56;5093839;28;20036;-74
2021/11/16 05:19:28;;;;;;;64.95;34.75;;;;;;;4.46;100.00;101415.47;5093924;28;20051;-73
2021/11/16 05:21:56;;;;;;;63.42;34.63;;;;;;;4.36;100.00;101407.72;5093700;28;20121;-73
2021/11/16 05:24:25;;;;;;;71.32;35.33;;;;;;;4.32;100.00;101414.81;5093375;28;20526;-73
2021/11/16 05:26:53;;;;;;;60.92;33.33;;;;;;;4.32;100.00;101417.44;5092629;28;20044;-72
2021/11/16 05:29:22;;;;;;;63.65;32.78;;;;;;;4.51;100.00;101415.38;5093812;28;20370;-72
2021/11/16 05:31:50;;;;;;;63.15;33.47;;;;;;;4.34;100.00;101420.94;5095534;28;20466;-72
2021/11/16 05:34:21;;;;;;;64.93;34.05;;;;;;;4.39;100.00;101416.47;5093715;28;20069;-71
2021/11/16 05:36:49;;;;;;;64.97;34.42;;;;;;;4.37;100.00;101415.63;5092293;28;20040;-71
2021/11/16 05:39:17;;;;;;;64.47;34.33;;;;;;;4.48;100.00;101413.69;5093237;28;20051;-72
2021/11/16 05:41:48;;;;;;;63.97;34.63;;;;;;;4.40;100.00;101423.50;5093367;28;20065;-72
2021/11/16 05:44:17;;;;;;;63.13;33.33;;;;;;;4.50;100.00;101422.44;5093436;28;20036;-71
2021/11/16 05:46:45;;;;;;;61.00;33.55;;;;;;;4.73;100.00;101414.13;5093052;28;20040;-75
2021/11/16 05:49:14;;;;;;;63.33;33.13;;;;;;;4.61;100.00;101424.91;5093157;28;20101;-72
2021/11/16 05:51:43;;;;;;;58.17;33.05;;;;;;;4.72;100.00;101422.94;5093048;28;20073;-73
2021/11/16 05:54:16;;;;;;;61.80;32.30;;;;;;;4.74;100.00;101422.94;5092759;28;20056;-74
2021/11/16 05:56:46;;;;;;;67.03;33.67;;;;;;;4.71;100.00;101421.19;5095632;28;20051;-72
2021/11/16 05:59:14;;;;;;;61.88;31.88;;;;;;;4.82;100.00;101418.34;5093442;28;20481;-73
2021/11/16 06:01:42;;;;;;;60.90;33.65;;;;;;;4.66;100.00;101430.13;5092931;28;20121;-74
2021/11/16 06:04:11;;;;;;;62.30;32.17;;;;;;;4.63;100.00;101424.88;5093088;28;20130;-73
2021/11/16 06:06:40;;;;;;;60.22;33.42;;;;;;;4.66;100.00;101424.84;5092530;28;20051;-74
2021/11/16 06:09:14;;;;;;;61.42;33.30;;;;;;;4.73;100.00;101424.72;5093127;28;20401;-72
2021/11/16 06:11:43;;;;;;;61.50;34.08;;;;;;;4.64;100.00;101435.44;5092498;28;20055;-71
2021/11/16 06:14:11;;;;;;;61.25;32.17;;;;;;;4.49;100.00;101439.19;5091726;28;20048;-71
2021/11/16 06:16:39;;;;;;;56.63;31.45;;;;;;;4.57;100.00;101442.59;5089246;28;20048;-72
2021/11/16 06:19:09;;;;;;;61.97;32.75;;;;;;;4.67;100.00;101439.78;5092083;28;20044;-71
2021/11/16 06:21:38;;;;;;;61.20;33.65;;;;;;;4.66;100.00;101448.63;5092420;28;20539;-72
2021/11/16 06:24:06;;;;;;;61.35;32.30;;;;;;;4.58;100.00;101441.69;5092092;28;20047;-71
2021/11/16 06:26:36;;;;;;;61.38;33.55;;;;;;;4.62;100.00;101437.22;5092447;28;20050;-71
2021/11/16 06:29:06;;;;;;;57.55;31.98;;;;;;;4.58;100.00;101446.97;5091930;28;20354;-72
2021/11/16 06:31:35;;;;;;;61.67;33.28;;;;;;;4.59;100.00;101442.56;5091162;28;20052;-71
2021/11/16 06:34:05;;;;;;;61.08;32.80;;;;;;;4.71;100.00;101444.13;5091547;28;20080;-70
2021/11/16 06:36:36;;;;;;;66.97;34.28;;;;;;;4.74;100.00;101437.03;5092154;28;20170;-70
2021/11/16 06:39:07;;;;;;;57.72;30.67;;;;;;;4.66;100.00;101445.97;5094319;28;20050;-70
2021/11/16 06:41:38;;;;;;;59.75;33.45;;;;;;;4.59;100.00;101448.72;5096252;28;20089;-70
2021/11/16 06:44:07;;;;;;;61.70;32.33;;;;;;;4.56;100.00;101454.06;5095668;28;20036;-70
2021/11/16 06:46:36;;;;;;;61.25;32.03;;;;;;;4.68;100.00;101454.75;5096133;28;20447;-69
2021/11/16 06:49:07;;;;;;;64.28;33.40;;;;;;;4.69;100.00;101449.44;5095396;28;20503;-69
2021/11/16 06:51:38;;;;;;;62.65;33.42;;;;;;;4.84;100.00;101449.19;5099328;28;20098;-70
2021/11/16 06:54:08;;;;;;;57.85;31.42;;;;;;;4.92;100.00;101449.03;5095653;28;20103;-69
2021/11/16 06:56:39;;;;;;;61.53;32.20;;;;;;;4.97;100.00;101449.81;5093257;28;20047;-70
2021/11/16 06:59:07;;;;;;;61.95;32.00;;;;;;;4.97;100.00;101441.88;5075406;28;20048;-70
2021/11/16 07:01:37;;;;;;;57.15;32.75;;;;;;;5.02;100.00;101437.41;5075433;28;20508;-73
2021/11/16 07:04:09;;;;;;;60.13;31.15;;;;;;;5.01;100.00;101440.91;5094218;28;20123;-72
2021/11/16 07:06:39;;;;;;;61.03;34.10;;;;;;;4.93;100.00;101427.00;5095863;28;20051;-72
2021/11/16 07:09:08;;;;;;;59.38;32.85;;;;;;;4.92;100.00;101435.81;5095417;28;20067;-71
2021/11/16 07:11:46;;;;;;;65.10;32.03;;;;;;;4.81;100.00;101437.78;5095271;28;20443;-70
2021/11/16 07:14:16;;;;;;;59.20;31.90;;;;;;;4.88;100.00;101435.00;5094408;28;20115;-72
2021/11/16 07:16:58;;;;;;;66.63;32.72;;;;;;;4.86;100.00;101434.16;5095520;28;20044;-71
2021/11/16 07:19:35;;;;;;;63.67;33.58;;;;;;;4.89;100.00;101435.88;5095329;28;20036;-72
2021/11/16 07:22:06;;;;;;;61.35;34.60;;;;;;;4.81;100.00;101458.91;5095546;28;20052;-70
2021/11/16 07:24:42;;;;;;;64.65;33.65;;;;;;;4.72;100.00;101454.66;5095097;28;20472;-73
2021/11/16 07:27:13;;;;;;;68.60;33.95;;;;;;;4.75;100.00;101459.03;5095535;28;20036;-73
2021/11/16 07:29:43;;;;;;;66.85;35.42;;;;;;;4.67;100.00;101460.94;5095025;28;20047;-68
2021/11/16 07:32:13;;;;;;;62.45;33.47;;;;;;;4.72;100.00;101451.16;5094907;28;20485;-68
2021/11/16 07:34:43;;;;;;;65.47;34.83;;;;;;;4.66;100.00;101464.47;5093701;28;20388;-73
2021/11/16 07:37:15;;;;;;;65.57;35.25;;;;;;;4.59;100.00;101464.56;5094802;28;20039;-73
2021/11/16 07:39:47;;;;;;;66.45;35.63;;;;;;;4.71;100.00;101459.97;5094312;28;20481;-68
2021/11/16 07:42:18;;;;;;;68.03;35.45;;;;;;;4.98;100.00;101463.91;5088561;28;20109;-70
2021/11/16 07:45:07;;;;;;;62.85;33.67;;;;;;;5.02;100.00;101458.56;5082468;28;20512;-71
2021/11/16 07:47:41;;;;;;;67.90;35.33;;;;;;;5.13;100.00;101456.59;5094436;28;20040;-74
2021/11/16 07:50:18;;;;;;;62.00;34.17;;;;;;;5.29;100.00;101457.16;5093143;28;20036;-74
2021/11/16 07:52:48;;;;;;;63.53;33.42;;;;;;;5.41;100.00;101461.34;5094018;28;20048;-74
2021/11/16 07:55:25;;;;;;;68.13;33.88;;;;;;;5.63;100.00;101461.78;5094221;28;20166;-71
2021/11/16 07:57:55;;;;;;;62.13;34.70;;;;;;;5.77;100.00;101459.72;5094205;28;20152;-70
2021/11/16 08:00:27;;;;;;;64.45;33.33;;;;;;;5.94;100.00;101451.44;5094716;28;20047;-68
2021/11/16 08:03:03;;;;;;;63.92;36.15;;;;;;;5.78;100.00;101456.16;5089740;28;20536;-71
2021/11/16 08:05:41;;;;;;;61.47;34.15;;;;;;;5.71;100.00;101468.66;5088239;28;20063;-72
2021/11/16 08:08:23;;;;;;;64.85;36.45;;;;;;;5.67;100.00;101472.25;5094176;28;20097;-68
2021/11/16 08:11:11;;;;;;;65.50;36.40;;;;;;;5.61;100.00;101468.91;5093830;28;20067;-68
2021/11/16 08:13:53;;;;;;;68.72;36.88;;;;;;;5.65;100.00;101471.44;5093513;28;20036;-71
2021/11/16 08:16:23;;;;;;;71.93;37.80;;;;;;;5.86;100.00;101466.59;5094162;28;20063;-72
2021/11/16 08:18:55;;;;;;;62.63;36.97;;;;;;;5.97;100.00;101467.25;5093595;28;20475;-72
2021/11/16 08:21:25;;;;;;;73.25;39.38;;;;;;;6.04;100.00;101460.94;5093739;28;20556;-70
2021/11/16 08:23:56;;;;;;;70.63;39.65;;;;;;;6.32;100.00;101469.13;5092559;28;20073;-71
2021/11/16 08:26:31;;;;;;;76.70;40.40;;;;;;;6.30;100.00;101471.81;5093607;28;20495;-71
2021/11/16 08:29:01;;;;;;;69.95;40.50;;;;;;;6.25;100.00;101473.69;5093109;28;20036;-71
2021/11/16 08:31:37;;;;;;;75.38;40.28;;;;;;;6.41;100.00;101476.84;5093614;28;20050;-70
2021/11/16 08:34:09;;;;;;;71.43;39.83;;;;;;;6.52;100.00;101466.88;5093328;28;20082;-70
2021/11/16 08:36:45;;;;;;;75.53;40.00;;;;;;;6.69;100.00;101473.53;5093261;28;20040;-71
2021/11/16 08:39:15;;;;;;;77.63;40.17;;;;;;;6.68;100.00;101470.03;5093640;28;20044;-70
2021/11/16 08:41:43;;;;;;;72.40;39.42;;;;;;;6.73;100.00;101465.47;5094319;28;20046;-72
2021/11/16 08:44:19;;;;;;;73.88;39.50;;;;;;;6.66;100.00;101461.25;5094324;28;20075;-74
2021/11/16 08:46:51;;;;;;;73.28;39.85;;;;;;;6.66;100.00;101463.00;5093973;28;20054;-74
2021/11/16 08:49:27;;;;;;;74.57;41.25;;;;;;;6.78;100.00;101460.94;5094183;28;20123;-71
2021/11/16 08:51:59;;;;;;;79.18;42.38;;;;;;;6.72;100.00;101455.78;5093471;28;20165;-71
2021/11/16 08:54:35;;;;;;;72.78;39.95;;;;;;;6.86;100.00;101472.22;5094082;28;20055;-75
2021/11/16 08:57:04;;;;;;;76.53;40.45;;;;;;;6.84;100.00;101462.53;5094001;28;20065;-73
2021/11/16 08:59:37;;;;;;;75.65;41.40;;;;;;;6.95;100.00;101462.25;5091978;28;20076;-71
2021/11/16 09:02:07;;;;;;;77.10;42.13;;;;;;;6.98;100.00;101459.53;5092558;28;20050;-71
2021/11/16 09:04:40;;;;;;;73.28;42.47;;;;;;;7.02;100.00;101458.53;5093540;28;20063;-71
2021/11/16 09:07:25;;;;;;;66.47;40.03;;;;;;;7.15;100.00;101462.63;5093857;28;20047;-72
2021/11/16 09:09:57;;;;;;;77.97;41.03;;;;;;;7.07;100.00;101461.97;5093109;28;20054;-71
2021/11/16 09:12:51;;;;;;;76.35;41.67;;;;;;;7.11;100.00;101463.59;5093673;28;20480;-71
2021/11/16 09:15:32;;;;;;;74.30;41.22;;;;;;;7.15;100.00;101463.50;5079628;28;20052;-71
2021/11/16 09:18:17;;;;;;;72.97;41.85;;;;;;;7.15;100.00;101452.88;5093498;28;20040;-71
2021/11/16 09:20:55;;;;;;;72.80;41.33;;;;;;;7.15;100.00;101457.31;5093487;28;20065;-71
2021/11/16 09:23:25;;;;;;;73.80;41.75;;;;;;;7.30;100.00;101451.56;5093713;28;20036;-71
2021/11/16 09:26:06;;;;;;;74.07;41.63;;;;;;;7.49;100.00;101454.59;5092986;28;20040;-72
2021/11/16 09:28:39;;;;;;;75.70;41.08;;;;;;;7.43;100.00;101454.75;5093550;28;20078;-71
2021/11/16 09:31:20;;;;;;;79.50;43.03;;;;;;;7.36;100.00;101440.81;5093124;28;20067;-71
2021/11/16 09:33:51;;;;;;;80.43;42.88;;;;;;;7.36;100.00;101440.81;5092954;28;20048;-71
2021/11/16 09:36:28;;;;;;;77.60;43.15;;;;;;;7.49;100.00;101443.09;5091694;28;20055;-70
2021/11/16 09:38:59;;;;;;;74.82;41.22;;;;;;;7.65;100.00;101442.63;5092659;28;20042;-70
2021/11/16 09:41:34;;;;;;;74.20;41.90;;;;;;;7.63;100.00;101433.84;5092912;28;20044;-70
2021/11/16 09:44:07;;;;;;;80.28;43.10;;;;;;;7.60;100.00;101438.34;5092274;28;20397;-71
2021/11/16 09:46:46;;;;;;;74.03;41.25;;;;;;;7.49;100.00;101435.13;5093077;28;20051;-71
2021/11/16 09:49:18;;;;;;;73.90;41.80;;;;;;;7.35;100.00;101433.75;5092483;28;20124;-69
2021/11/16 09:51:56;;;;;;;75.38;42.38;;;;;;;7.42;100.00;101431.78;5090522;28;20044;-72
2021/11/16 09:54:25;;;;;;;77.95;42.70;;;;;;;7.47;100.00;101430.75;5091845;28;20101;-72
2021/11/16 09:57:13;;;;;;;74.82;43.03;;;;;;;7.54;100.00;101422.63;5092149;28;20040;-70
2021/11/16 09:59:44;;;;;;;74.38;39.17;;;;;;;7.41;100.00;101422.94;5089398;28;20440;-71
2021/11/16 10:02:21;;;;;;;73.90;40.22;;;;;;;7.70;100.00;101411.47;5089837;28;20040;-72
2021/11/16 10:04:55;;;;;;;75.53;41.42;;;;;;;7.63;100.00;101411.72;5091851;28;20044;-72
2021/11/16 10:07:23;;;;;;;80.40;39.65;;;;;;;7.85;100.00;101406.63;5092120;28;20064;-73
2021/11/16 10:09:52;;;;;;;70.40;40.45;;;;;;;7.75;100.00;101412.22;5092123;28;20040;-73
2021/11/16 10:12:23;;;;;;;73.85;40.25;;;;;;;7.60;100.00;101406.47;5092084;28;20127;-72
2021/11/16 10:14:52;;;;;;;69.55;39.58;;;;;;;7.37;100.00;101410.69;5091765;28;20101;-72
2021/11/16 10:17:23;;;;;;;68.25;38.92;;;;;;;7.31;100.00;101402.88;5092234;28;20416;-72
2021/11/16 10:19:52;;;;;;;72.40;40.17;;;;;;;7.53;100.00;101395.19;5091128;28;20452;-72
2021/11/16 10:22:21;;;;;;;73.70;41.20;;;;;;;7.60;100.00;101387.91;5091507;28;20052;-72
2021/11/16 10:24:49;;;;;;;73.53;41.10;;;;;;;7.80;100.00;101384.63;5092067;28;20169;-72
2021/11/16 10:27:34;;;;;;;69.90;39.17;;;;;;;8.03;100.00;101379.50;5092694;28;20048;-72
2021/11/16 10:30:15;;;;;;;74.47;40.78;;;;;;;8.06;100.00;101376.72;5091861;28;20040;-73
2021/11/16 10:32:49;;;;;;;72.90;40.58;;;;;;;8.16;100.00;101372.84;5092516;28;20123;-72
2021/11/16 10:35:22;;;;;;;70.43;39.42;;;;;;;8.20;100.00;101370.94;5092238;28;20044;-75
2021/11/16 10:37:54;;;;;;;75.78;40.25;;;;;;;8.23;100.00;101377.06;5090960;28;20048;-73
2021/11/16 10:40:24;;;;;;;71.13;41.13;;;;;;;8.25;100.00;101369.03;5092245;28;20044;-73
2021/11/16 10:42:56;;;;;;;70.68;40.38;;;;;;;8.00;100.00;101367.16;5094700;28;20040;-72
2021/11/16 10:45:26;;;;;;;70.82;40.35;;;;;;;7.96;100.00;101368.19;5092197;28;20055;-74
2021/11/16 10:47:59;;;;;;;72.90;41.25;;;;;;;7.90;100.00;101362.19;5091693;28;20052;-76
2021/11/16 10:50:30;;;;;;;;;;;;;;;8.20;100.00;101366.53;5092840;28;20052;-72
2021/11/16 10:53:02;;;;;;;72.28;40.13;;;;;;;8.26;100.00;101361.00;5092089;28;19920;-71
2021/11/16 10:55:46;;;;;;;74.50;40.63;;;;;;;8.36;100.00;101356.28;5091738;28;20032;-73
2021/11/16 10:58:16;;;;;;;69.82;40.47;;;;;;;8.43;100.00;101351.63;5091930;28;20097;-73
2021/11/16 11:00:51;;;;;;;68.25;39.05;;;;;;;8.52;100.00;101344.22;5092077;28;20044;-74
2021/11/16 11:03:28;;;;;;;67.65;40.35;;;;;;;8.56;100.00;101332.53;5091915;28;20485;-73
2021/11/16 11:06:04;;;;;;;70.97;39.88;;;;;;;8.64;100.00;101334.94;5091055;28;20036;-72
2021/11/16 11:08:39;;;;;;;69.97;40.33;;;;;;;8.41;100.00;101329.56;5091905;28;20055;-75
2021/11/16 11:11:20;;;;;;;72.97;41.47;;;;;;;8.45;100.00;101328.53;5091768;28;20064;-74
2021/11/16 11:14:00;;;;;;;72.43;39.92;;;;;;;8.28;100.00;101319.28;5091328;28;20089;-74
2021/11/16 11:16:30;;;;;;;70.97;40.20;;;;;;;8.22;100.00;101318.63;5091618;28;20052;-72
2021/11/16 11:19:00;;;;;;;75.57;40.67;;;;;;;8.11;100.00;101310.16;5090818;28;20046;-72
2021/11/16 11:21:38;;;;;;;72.82;41.45;;;;;;;7.87;100.00;101309.16;5090510;28;20504;-70
2021/11/16 11:24:12;;;;;;;76.45;40.00;;;;;;;7.96;100.00;101309.72;5090475;28;20064;-73
2021/11/16 11:26:45;;;;;;;72.15;39.33;;;;;;;7.95;100.00;101312.44;5094191;28;20139;-74
2021/11/16 11:29:28;;;;;;;77.03;42.53;;;;;;;7.86;100.00;101302.97;5093907;28;20623;-72
2021/11/16 11:32:09;;;;;;;74.22;40.22;;;;;;;7.83;100.00;101302.22;5094522;28;20556;-74
2021/11/16 11:35:00;;;;;;;76.05;42.70;;;;;;;7.63;100.00;101298.41;5093651;28;20036;-72
2021/11/16 11:37:30;;;;;;;79.03;42.28;;;;;;;7.91;100.00;101301.06;5074218;28;20072;-72